Chicago, Illinois
Traffic Map
Current Weather Conditions
Chicago, Illinois
Overcast
Overcast
53°
Feels Like: 53°
Wind Chill: 53° Ceiling: 7500
Heat Index: 53° Visibility: 10mi
Dew Point: 47° Wind: 13mph
Humidity: 80% Direction: 350° (N)
Pressure: 29.81in Gusts: 0mph
Raw Report DataKMDW 281153Z 35011KT 10SM FEW015 BKN075 OVC090 12/08 A2981 RMK AO2 DZE45 SLP092 P0000 60001 70001 T01170083 10139 20117 53005
Traffic Incident Summary
Active as of:
Severity:
Category:
InformationThere was an issue retrieving the traffic information for this location. Please try a different location or try again shortly.
Advertisements
Track Severe Weather on mobile